Time;durP1;ratioP1;P1;durP2;ratioP2;P2;SDS_P1;SDS_P2;PMS_P1;PMS_P2;Temp;Humidity;BMP_temperature;BMP_pressure;BME280_temperature;BME280_humidity;BME280_pressure;Samples;Min_cycle;Max_cycle;Signal;HPM_P1;HPM_P2
2022/08/18 00:00:32;;;;;;;55.45;10.70;;;12.00;99.90;;;;;;4989182;28;20397;-71
2022/08/18 00:03:05;;;;;;;16.17;7.13;;;12.30;99.90;;;;;;4991958;28;20380;-72
2022/08/18 00:05:33;;;;;;;15.95;7.18;;;12.40;99.90;;;;;;4991283;28;20412;-72
2022/08/18 00:08:01;;;;;;;7.60;6.07;;;12.50;99.90;;;;;;4992101;28;20381;-75
2022/08/18 00:10:29;;;;;;;8.98;6.40;;;12.60;99.90;;;;;;4992007;28;20452;-72
2022/08/18 00:12:56;;;;;;;8.48;6.00;;;12.70;99.90;;;;;;4982384;28;20882;-72
2022/08/18 00:15:23;;;;;;;11.77;5.93;;;12.70;99.90;;;;;;4987472;28;20930;-72
2022/08/18 00:17:50;;;;;;;6.97;4.45;;;12.90;99.90;;;;;;4991675;28;20484;-72
2022/08/18 00:20:22;;;;;;;7.22;4.50;;;13.00;99.90;;;;;;4991168;28;20459;-72
2022/08/18 00:22:51;;;;;;;7.28;3.60;;;13.10;99.90;;;;;;4973431;28;20400;-72
2022/08/18 00:25:19;;;;;;;5.07;3.28;;;13.20;99.90;;;;;;4990526;28;20486;-71
2022/08/18 00:27:46;;;;;;;12.10;3.40;;;13.10;99.90;;;;;;4977607;28;20392;-70
2022/08/18 00:30:18;;;;;;;5.10;3.30;;;13.30;99.90;;;;;;4986927;28;20409;-71
2022/08/18 00:32:51;;;;;;;6.95;3.47;;;13.40;99.90;;;;;;4974249;28;20427;-70
2022/08/18 00:35:28;;;;;;;7.72;3.40;;;13.40;99.90;;;;;;4990973;28;20392;-71
2022/08/18 00:37:57;;;;;;;5.50;3.15;;;13.20;99.90;;;;;;4990947;28;20385;-72
2022/08/18 00:40:32;;;;;;;8.23;3.30;;;13.10;99.90;;;;;;4991265;28;20858;-72
2022/08/18 00:43:04;;;;;;;7.75;3.10;;;13.00;99.90;;;;;;4991551;28;20380;-72
2022/08/18 00:45:38;;;;;;;6.88;3.15;;;13.00;99.90;;;;;;4991222;28;20396;-73
2022/08/18 00:48:07;;;;;;;5.80;2.83;;;13.50;99.90;;;;;;4991091;28;20506;-71
2022/08/18 00:50:43;;;;;;;7.35;2.80;;;14.00;99.90;;;;;;4991059;28;20879;-71
2022/08/18 00:53:21;;;;;;;3.88;2.35;;;14.30;99.90;;;;;;4991281;28;20454;-71
2022/08/18 00:55:50;;;;;;;5.63;2.10;;;14.70;99.90;;;;;;4990950;28;20760;-70
2022/08/18 00:58:40;;;;;;;3.13;2.03;;;14.90;99.90;;;;;;4990623;28;20385;-72
2022/08/18 01:01:10;;;;;;;4.80;2.00;;;15.20;99.90;;;;;;4989900;28;20416;-72
2022/08/18 01:03:38;;;;;;;5.18;2.10;;;15.40;99.90;;;;;;4990863;28;20718;-73
2022/08/18 01:06:24;;;;;;;3.83;2.08;;;15.50;99.90;;;;;;4990247;28;20436;-71
2022/08/18 01:08:51;;;;;;;3.63;1.63;;;15.60;99.90;;;;;;4985377;28;20454;-72
2022/08/18 01:11:18;;;;;;;4.20;1.80;;;15.80;99.40;;;;;;4990597;28;20409;-71
2022/08/18 01:13:45;;;;;;;3.55;1.75;;;15.80;98.50;;;;;;4976173;28;20937;-71
2022/08/18 01:21:52;;;;;;;3.17;1.83;;;15.90;98.90;;;;;;4991369;28;20400;-72
2022/08/18 01:25:58;;;;;;;3.45;1.80;;;16.10;98.60;;;;;;4989364;28;20395;-71
2022/08/18 01:27:11;;;;;;;4.07;2.00;;;16.40;97.20;;;;;;4990355;28;20407;-71
2022/08/18 01:29:39;;;;;;;2.95;1.92;;;16.80;94.10;;;;;;4989338;28;20780;-71
2022/08/18 01:32:06;;;;;;;3.95;2.00;;;17.40;93.20;;;;;;4988974;28;20389;-71
2022/08/18 01:34:33;;;;;;;3.65;1.80;;;18.00;91.80;;;;;;4988958;28;20399;-71
2022/08/18 01:37:03;;;;;;;4.60;1.90;;;18.90;89.10;;;;;;4989052;28;20496;-71
2022/08/18 01:39:31;;;;;;;5.28;1.90;;;19.60;83.90;;;;;;4990452;28;20861;-71
2022/08/18 01:41:58;;;;;;;9.00;2.10;;;20.00;79.30;;;;;;4985237;28;20377;-71
2022/08/18 01:44:25;;;;;;;2.85;1.70;;;20.90;76.10;;;;;;4993709;28;20401;-71
2022/08/18 01:46:53;;;;;;;3.92;1.70;;;21.60;68.70;;;;;;4994626;28;20851;-72
2022/08/18 01:49:21;;;;;;;3.40;1.90;;;21.60;64.20;;;;;;4994389;28;20490;-72
2022/08/18 01:51:49;;;;;;;3.03;1.40;;;21.40;65.30;;;;;;4994680;28;20412;-71
2022/08/18 01:54:16;;;;;;;3.72;1.80;;;21.90;65.40;;;;;;4994714;28;20369;-71
2022/08/18 01:56:43;;;;;;;2.77;1.20;;;21.80;61.70;;;;;;4993691;28;20753;-71
2022/08/18 01:59:13;;;;;;;4.97;1.50;;;20.80;61.60;;;;;;4994578;28;20429;-73
2022/08/18 02:01:42;;;;;;;6.65;1.50;;;20.40;64.30;;;;;;4994386;28;20385;-71
2022/08/18 02:04:11;;;;;;;3.90;1.50;;;20.00;67.30;;;;;;4994073;28;20408;-72
2022/08/18 02:06:39;;;;;;;4.17;2.17;;;19.80;68.80;;;;;;4994424;28;20471;-71
2022/08/18 02:09:07;;;;;;;3.97;1.77;;;19.90;70.40;;;;;;4994048;28;20407;-71
2022/08/18 02:11:34;;;;;;;3.88;1.50;;;20.10;70.20;;;;;;4993974;28;20467;-72
2022/08/18 02:14:01;;;;;;;2.63;1.70;;;20.40;69.60;;;;;;4980582;28;20871;-71
2022/08/18 02:16:28;;;;;;;1.98;1.40;;;21.10;65.40;;;;;;4993787;28;20458;-72
2022/08/18 02:18:56;;;;;;;3.20;1.60;;;21.60;64.40;;;;;;4975809;28;21152;-71
2022/08/18 02:21:23;;;;;;;3.58;1.60;;;22.30;63.40;;;;;;4993763;28;20393;-71
2022/08/18 02:23:50;;;;;;;2.55;1.50;;;22.80;59.30;;;;;;4986237;28;20876;-71
2022/08/18 02:26:18;;;;;;;4.27;1.60;;;23.20;57.20;;;;;;4999699;28;20398;-71
2022/08/18 02:28:45;;;;;;;3.23;1.50;;;23.10;59.40;;;;;;5008500;28;20825;-71
2022/08/18 02:31:19;;;;;;;3.67;1.35;;;23.10;58.40;;;;;;4996208;28;20393;-71
2022/08/18 02:33:47;;;;;;;3.35;1.30;;;22.90;58.10;;;;;;5000678;28;20803;-72
2022/08/18 02:36:15;;;;;;;3.10;1.30;;;22.60;55.70;;;;;;4994177;28;20389;-71
2022/08/18 02:38:43;;;;;;;4.00;1.23;;;22.10;56.90;;;;;;4993952;28;20376;-72
2022/08/18 02:41:13;;;;;;;1.85;0.95;;;21.90;57.80;;;;;;4993184;28;20417;-72
2022/08/18 02:43:41;;;;;;;1.85;1.05;;;22.00;56.70;;;;;;4993729;28;20369;-72
2022/08/18 02:46:08;;;;;;;2.15;1.10;;;22.10;56.80;;;;;;4993824;28;20385;-72
2022/08/18 02:48:35;;;;;;;4.07;1.10;;;21.70;57.00;;;;;;4993711;28;20374;-73
2022/08/18 02:51:08;;;;;;;3.65;1.10;;;21.50;57.70;;;;;;4975012;28;20415;-72
2022/08/18 02:53:36;;;;;;;1.70;1.13;;;21.50;56.90;;;;;;4993683;28;20377;-72
2022/08/18 02:56:21;;;;;;;4.45;1.10;;;21.40;57.60;;;;;;4993250;28;20435;-72
2022/08/18 02:58:51;;;;;;;2.85;1.20;;;21.70;58.30;;;;;;4993564;28;20377;-72
2022/08/18 03:01:24;;;;;;;2.70;1.15;;;22.30;56.70;;;;;;4993180;28;20792;-72
2022/08/18 03:03:52;;;;;;;3.37;1.10;;;22.60;56.10;;;;;;4993275;28;20449;-76
2022/08/18 03:06:20;;;;;;;3.58;1.10;;;23.10;55.50;;;;;;4993419;28;20381;-71
2022/08/18 03:08:49;;;;;;;3.03;1.10;;;23.50;53.00;;;;;;4993540;28;20720;-71
2022/08/18 03:11:22;;;;;;;2.15;1.00;;;23.40;53.60;;;;;;4989998;28;20459;-74
2022/08/18 03:13:50;;;;;;;3.45;1.20;;;23.20;54.10;;;;;;4959500;28;20722;-72
2022/08/18 03:16:20;;;;;;;7.87;1.27;;;22.70;54.00;;;;;;4993126;28;20443;-72
2022/08/18 03:18:47;;;;;;;2.33;1.27;;;22.20;54.40;;;;;;4992519;28;20391;-72
2022/08/18 03:21:18;;;;;;;2.65;1.05;;;21.90;55.60;;;;;;4985181;28;20454;-72
2022/08/18 03:23:45;;;;;;;3.35;1.00;;;21.60;56.80;;;;;;4988124;28;20373;-72
2022/08/18 03:26:14;;;;;;;2.63;1.10;;;21.60;57.00;;;;;;4993186;28;20393;-72
2022/08/18 03:28:45;;;;;;;2.53;0.90;;;21.50;56.70;;;;;;4993322;28;20520;-72
2022/08/18 03:31:14;;;;;;;1.13;0.87;;;20.90;55.20;;;;;;4993415;28;20396;-73
2022/08/18 03:33:42;;;;;;;1.75;1.00;;;20.60;57.20;;;;;;4992968;28;20476;-72
2022/08/18 03:36:16;;;;;;;1.50;0.90;;;20.30;57.50;;;;;;4993233;28;20884;-72
2022/08/18 03:38:45;;;;;;;2.95;0.88;;;20.10;57.90;;;;;;4993061;28;20789;-73
2022/08/18 03:41:14;;;;;;;2.47;0.90;;;20.00;59.20;;;;;;4993366;28;20400;-72
2022/08/18 03:43:41;;;;;;;2.72;0.90;;;20.00;59.20;;;;;;5006719;28;20873;-73
2022/08/18 03:46:11;;;;;;;1.63;1.00;;;20.00;58.60;;;;;;5008108;28;20891;-73
2022/08/18 03:48:40;;;;;;;3.70;0.90;;;20.00;58.60;;;;;;5005063;28;20392;-73
2022/08/18 03:51:12;;;;;;;3.53;1.10;;;20.00;59.20;;;;;;5014199;28;20384;-71
2022/08/18 03:53:40;;;;;;;2.45;1.08;;;19.80;60.20;;;;;;4995999;28;20389;-71
2022/08/18 03:56:16;;;;;;;2.07;1.13;;;19.70;61.70;;;;;;4996390;28;20389;-71
2022/08/18 03:58:49;;;;;;;2.92;1.20;;;19.50;62.30;;;;;;4988226;28;20458;-72
2022/08/18 04:01:20;;;;;;;3.70;1.27;;;19.50;62.60;;;;;;4989734;28;21568;-72
2022/08/18 04:03:55;;;;;;;2.63;1.20;;;19.50;62.70;;;;;;5006613;28;20855;-73
2022/08/18 04:06:28;;;;;;;3.00;1.30;;;19.40;63.10;;;;;;5003189;28;20434;-72
2022/08/18 04:08:59;;;;;;;1.98;1.20;;;19.40;64.00;;;;;;4993309;28;20849;-73
2022/08/18 04:11:27;;;;;;;1.73;1.10;;;19.50;63.90;;;;;;4992555;28;20404;-73
2022/08/18 04:13:57;;;;;;;3.38;1.35;;;19.50;63.40;;;;;;4979034;28;20389;-74
2022/08/18 04:16:31;;;;;;;1.30;1.00;;;19.50;64.10;;;;;;4992237;28;20444;-73
2022/08/18 04:19:02;;;;;;;3.03;1.20;;;19.40;63.70;;;;;;4992350;28;20385;-72
2022/08/18 04:21:32;;;;;;;2.70;1.08;;;19.50;63.10;;;;;;4992447;28;20380;-73
2022/08/18 04:24:02;;;;;;;2.50;1.30;;;19.70;62.30;;;;;;4991941;28;20388;-71
2022/08/18 04:26:31;;;;;;;3.25;1.33;;;20.00;61.10;;;;;;4992061;28;20392;-71
2022/08/18 04:29:01;;;;;;;1.77;1.20;;;20.40;61.30;;;;;;4991941;28;20422;-72
2022/08/18 04:31:30;;;;;;;1.40;1.30;;;20.60;60.90;;;;;;4992027;28;20471;-72
2022/08/18 04:34:00;;;;;;;2.53;1.38;;;20.80;60.50;;;;;;4991700;28;20380;-72
2022/08/18 04:36:30;;;;;;;3.05;1.30;;;20.80;60.50;;;;;;4991696;28;20404;-72
2022/08/18 04:38:58;;;;;;;4.03;1.40;;;20.90;61.00;;;;;;4991808;28;20468;-72
2022/08/18 04:41:26;;;;;;;2.80;1.50;;;21.00;61.00;;;;;;4991639;28;20377;-72
2022/08/18 04:43:57;;;;;;;2.60;1.50;;;21.00;60.70;;;;;;4991363;28;20481;-73
2022/08/18 04:46:25;;;;;;;2.85;1.40;;;20.90;62.10;;;;;;4991609;28;20845;-73
2022/08/18 04:48:57;;;;;;;1.95;1.50;;;21.00;61.50;;;;;;4990805;28;20384;-73
2022/08/18 04:51:27;;;;;;;3.17;1.70;;;21.20;61.50;;;;;;4991637;28;20722;-73
2022/08/18 04:53:59;;;;;;;2.60;1.40;;;21.60;60.90;;;;;;4995264;28;20409;-73
2022/08/18 04:56:28;;;;;;;4.40;1.50;;;22.10;59.70;;;;;;5003776;28;20381;-74
2022/08/18 04:59:03;;;;;;;2.38;1.25;;;22.40;58.70;;;;;;4977636;28;20397;-74
2022/08/18 05:01:36;;;;;;;2.58;1.27;;;22.40;57.30;;;;;;4993488;28;20412;-72
2022/08/18 05:04:04;;;;;;;2.45;1.00;;;22.40;57.50;;;;;;4991188;28;20415;-72
2022/08/18 05:06:32;;;;;;;2.72;1.30;;;22.20;57.70;;;;;;4991347;28;20487;-73
2022/08/18 05:09:02;;;;;;;2.42;0.90;;;21.80;58.60;;;;;;4991121;28;20400;-73
2022/08/18 05:11:34;;;;;;;2.15;1.05;;;21.50;58.90;;;;;;4991158;28;20397;-73
2022/08/18 05:14:06;;;;;;;2.83;1.00;;;21.20;59.60;;;;;;4991761;28;20412;-72
2022/08/18 05:16:35;;;;;;;1.88;0.90;;;20.80;60.50;;;;;;4991253;28;20461;-73
2022/08/18 05:19:04;;;;;;;2.38;0.90;;;20.60;61.00;;;;;;4991002;28;20397;-73
2022/08/18 05:21:32;;;;;;;1.52;0.98;;;20.50;61.20;;;;;;4991031;28;20440;-73
2022/08/18 05:24:03;;;;;;;1.83;0.90;;;20.40;60.90;;;;;;4990221;28;20864;-72
2022/08/18 05:26:30;;;;;;;2.75;1.10;;;20.30;61.30;;;;;;4990698;28;20864;-73
2022/08/18 05:28:58;;;;;;;2.70;1.10;;;20.10;61.60;;;;;;4989904;28;20408;-73
2022/08/18 05:31:27;;;;;;;1.45;1.00;;;20.00;62.40;;;;;;4991073;28;20393;-74
2022/08/18 05:33:56;;;;;;;2.67;1.00;;;19.80;62.70;;;;;;4990795;28;20396;-76
2022/08/18 05:36:29;;;;;;;2.58;1.20;;;19.80;63.00;;;;;;4991078;28;20399;-74
2022/08/18 05:39:12;;;;;;;1.85;1.10;;;19.90;64.40;;;;;;4990544;28;20896;-73
2022/08/18 05:41:54;;;;;;;1.27;1.10;;;19.80;64.90;;;;;;4988790;28;20389;-74
2022/08/18 05:44:39;;;;;;;4.93;1.38;;;19.70;66.10;;;;;;4990448;28;20392;-72
2022/08/18 05:47:15;;;;;;;2.97;1.50;;;19.50;66.10;;;;;;4990200;28;20455;-73
2022/08/18 05:49:46;;;;;;;3.03;1.30;;;19.40;66.50;;;;;;4990540;28;20408;-72
2022/08/18 05:52:35;;;;;;;5.22;1.52;;;19.30;67.00;;;;;;4989513;28;20474;-72
2022/08/18 05:58:24;;;;;;;6.82;5.13;;;18.90;66.60;;;;;;4990696;28;20471;-72
2022/08/18 06:00:55;;;;;;;2.93;1.87;;;18.80;68.30;;;;;;4933272;29;20396;-73
2022/08/18 06:03:31;;;;;;;2.25;1.33;;;18.80;69.20;;;;;;4949724;29;20414;-72
2022/08/18 06:06:14;;;;;;;3.33;1.33;;;18.80;69.40;;;;;;4949407;29;20971;-72
2022/08/18 06:09:04;;;;;;;3.20;1.38;;;18.70;70.00;;;;;;4949677;29;20384;-72
2022/08/18 06:11:32;;;;;;;3.20;1.30;;;18.70;69.70;;;;;;4892312;29;20932;-72
2022/08/18 06:14:00;;;;;;;3.80;1.35;;;18.60;71.20;;;;;;4892366;29;20782;-72
2022/08/18 06:16:38;;;;;;;3.30;1.30;;;18.50;71.00;;;;;;4893130;29;20405;-75
2022/08/18 06:19:39;;;;;;;3.58;1.33;;;18.50;70.90;;;;;;4896112;29;20409;-74
2022/08/18 06:22:14;;;;;;;3.70;1.80;;;18.60;71.60;;;;;;4886459;29;20399;-75
2022/08/18 06:24:46;;;;;;;2.17;1.20;;;18.70;71.60;;;;;;4892258;29;20426;-78
2022/08/18 06:27:43;;;;;;;2.70;1.40;;;18.80;71.90;;;;;;4894353;29;21010;-74
2022/08/18 06:30:22;;;;;;;4.97;1.48;;;18.80;72.90;;;;;;4895977;29;20464;-76
2022/08/18 06:33:28;;;;;;;11.02;1.95;;;18.80;73.20;;;;;;4898743;29;20396;-74
2022/08/18 06:36:01;;;;;;;8.75;1.90;;;18.60;73.30;;;;;;4898682;29;20443;-76
2022/08/18 06:38:47;;;;;;;8.15;2.28;;;18.50;74.00;;;;;;4904945;29;20467;-75
2022/08/18 06:41:32;;;;;;;11.77;2.25;;;18.40;75.50;;;;;;4902675;29;20992;-75
2022/08/18 06:44:09;;;;;;;8.88;1.90;;;18.40;76.20;;;;;;4913935;29;20409;-75
2022/08/18 06:46:41;;;;;;;6.60;2.00;;;18.30;76.70;;;;;;4912874;29;20452;-76
2022/08/18 06:49:13;;;;;;;9.13;2.15;;;18.20;77.30;;;;;;4963823;28;20753;-74
2022/08/18 06:51:41;;;;;;;7.65;2.70;;;18.00;78.00;;;;;;4988402;28;20407;-75
2022/08/18 06:54:28;;;;;;;8.88;2.55;;;17.90;79.30;;;;;;4992702;28;20756;-75
2022/08/18 06:56:57;;;;;;;10.57;2.50;;;17.80;80.80;;;;;;4989833;28;20392;-75
2022/08/18 06:59:35;;;;;;;11.65;2.53;;;17.80;82.40;;;;;;4993159;28;20413;-75
2022/08/18 07:02:22;;;;;;;7.05;2.42;;;17.80;82.20;;;;;;4992094;28;20748;-75
2022/08/18 07:05:18;;;;;;;6.93;2.70;;;17.70;82.10;;;;;;4992842;28;20547;-74
2022/08/18 07:07:45;;;;;;;8.70;2.73;;;17.70;82.80;;;;;;4992533;28;20403;-74
2022/08/18 07:10:15;;;;;;;7.70;2.70;;;17.60;84.40;;;;;;4991697;28;20420;-74
2022/08/18 07:12:42;;;;;;;9.27;2.60;;;17.40;85.10;;;;;;4985219;28;20448;-75
2022/08/18 07:15:13;;;;;;;12.38;2.67;;;17.30;86.10;;;;;;4987246;28;20393;-75
2022/08/18 07:17:41;;;;;;;27.37;3.20;;;17.20;88.30;;;;;;4993543;28;20361;-74
2022/08/18 07:20:20;;;;;;;19.88;3.17;;;17.10;90.50;;;;;;4992576;28;20932;-76
2022/08/18 07:23:04;;;;;;;24.05;3.42;;;17.00;91.60;;;;;;4979827;28;20415;-76
2022/08/18 07:25:43;;;;;;;36.58;3.95;;;16.80;92.40;;;;;;4971013;28;20385;-75
2022/08/18 07:28:29;;;;;;;36.58;4.53;;;16.70;93.60;;;;;;4992585;28;20504;-75
2022/08/18 07:31:18;;;;;;;25.73;4.17;;;16.60;95.50;;;;;;4992231;28;20408;-75
2022/08/18 07:34:17;;;;;;;25.98;3.90;;;16.50;96.30;;;;;;4992685;28;20690;-75
2022/08/18 07:36:50;;;;;;;26.93;4.10;;;16.40;96.90;;;;;;4952061;29;20864;-74
2022/08/18 07:39:43;;;;;;;24.50;3.67;;;16.30;98.20;;;;;;4950342;29;20416;-75
2022/08/18 07:42:23;;;;;;;22.10;3.78;;;16.20;98.60;;;;;;4951219;29;20411;-75
2022/08/18 07:44:53;;;;;;;23.13;3.55;;;16.10;98.70;;;;;;4951633;29;20904;-74
2022/08/18 07:47:45;;;;;;;27.67;4.00;;;16.10;99.90;;;;;;4951550;29;20783;-74
2022/08/18 07:50:12;;;;;;;27.58;4.25;;;16.20;99.90;;;;;;4950594;29;21047;-74
2022/08/18 07:53:14;;;;;;;27.95;5.40;;;16.20;99.90;;;;;;4951114;29;20456;-74
2022/08/18 07:55:47;;;;;;;31.85;5.47;;;16.10;99.90;;;;;;4894541;29;20402;-74
2022/08/18 07:58:19;;;;;;;42.15;5.50;;;16.00;99.90;;;;;;4894205;29;20388;-74
2022/08/18 08:01:03;;;;;;;46.97;11.63;;;15.90;99.90;;;;;;4894199;29;20890;-77
2022/08/18 08:03:40;;;;;;;44.77;8.97;;;15.70;99.90;;;;;;4899659;29;20401;-74
2022/08/18 08:06:39;;;;;;;45.42;6.82;;;15.70;99.90;;;;;;4892512;29;20432;-75
2022/08/18 08:09:34;;;;;;;39.35;5.80;;;15.60;99.90;;;;;;4884667;29;20417;-78
2022/08/18 08:12:29;;;;;;;35.58;5.57;;;15.60;99.90;;;;;;4880988;29;20409;-77
2022/08/18 08:15:18;;;;;;;26.33;5.20;;;15.50;99.90;;;;;;4913018;29;20389;-75
2022/08/18 08:18:17;;;;;;;34.88;5.88;;;15.50;99.90;;;;;;4912252;29;20927;-75
2022/08/18 08:20:54;;;;;;;31.65;5.97;;;15.40;99.90;;;;;;4837753;29;20501;-74
2022/08/18 08:23:26;;;;;;;32.90;9.93;;;15.40;99.90;;;;;;4837843;29;20406;-74
2022/08/18 08:26:16;;;;;;;35.77;14.03;;;15.40;99.90;;;;;;4837828;29;20418;-74
2022/08/18 08:28:48;;;;;;;25.55;11.48;;;15.40;99.90;;;;;;4837437;29;20448;-73
2022/08/18 08:31:36;;;;;;;27.27;12.52;;;15.40;99.90;;;;;;4840677;29;20779;-73
2022/08/18 08:34:14;;;;;;;21.50;9.98;;;15.40;99.90;;;;;;4911769;29;20923;-75
2022/08/18 08:36:44;;;;;;;19.58;9.20;;;15.40;99.90;;;;;;4911730;29;20502;-74
2022/08/18 08:39:19;;;;;;;20.98;8.90;;;15.40;99.90;;;;;;4911949;29;20444;-82
2022/08/18 08:41:52;;;;;;;20.38;5.70;;;15.40;99.90;;;;;;4901725;29;20403;-78
2022/08/18 08:44:33;;;;;;;16.55;5.93;;;15.40;99.90;;;;;;4911697;29;20412;-74
2022/08/18 08:47:16;;;;;;;12.48;6.13;;;15.30;99.90;;;;;;4905098;29;20407;-75
2022/08/18 08:49:52;;;;;;;20.55;5.03;;;15.30;99.90;;;;;;4911115;29;20498;-75
2022/08/18 08:52:58;;;;;;;21.45;5.15;;;15.20;99.90;;;;;;4912264;29;20411;-76
2022/08/18 08:55:41;;;;;;;19.02;4.97;;;15.10;99.90;;;;;;4828276;29;20401;-75
2022/08/18 08:58:25;;;;;;;26.65;5.40;;;15.10;99.90;;;;;;4887423;29;20460;-75
2022/08/18 09:00:52;;;;;;;19.95;5.10;;;15.10;99.90;;;;;;4891727;29;20401;-75
2022/08/18 09:03:25;;;;;;;17.75;4.70;;;15.00;99.90;;;;;;4892549;29;20982;-75
2022/08/18 09:05:55;;;;;;;21.45;4.97;;;15.00;99.90;;;;;;4893218;29;20924;-74
2022/08/18 09:09:04;;;;;;;14.50;4.93;;;14.90;99.90;;;;;;4893251;29;20409;-79
2022/08/18 09:11:52;;;;;;;22.50;4.97;;;14.80;99.90;;;;;;4893202;29;20499;-84
2022/08/18 09:14:57;;;;;;;21.02;5.07;;;14.70;99.90;;;;;;4888483;29;20417;-90
2022/08/18 09:17:43;;;;;;;17.40;5.18;;;14.70;99.90;;;;;;4839350;29;20472;-87
2022/08/18 09:20:39;;;;;;;25.48;6.22;;;14.60;99.90;;;;;;4838289;29;20443;-78
2022/08/18 09:23:18;;;;;;;27.00;6.30;;;14.60;99.90;;;;;;4837553;29;20887;-78
2022/08/18 09:25:59;;;;;;;26.98;5.65;;;14.50;99.90;;;;;;4837108;29;20929;-74
2022/08/18 09:28:28;;;;;;;31.35;6.53;;;14.50;99.90;;;;;;4842670;29;20539;-75
2022/08/18 09:31:04;;;;;;;27.30;6.40;;;14.50;99.90;;;;;;4892616;29;20504;-76
2022/08/18 09:33:43;;;;;;;30.75;5.95;;;14.50;99.90;;;;;;4892756;29;20950;-77
2022/08/18 09:36:22;;;;;;;29.17;5.80;;;14.60;99.90;;;;;;4892353;29;20421;-75
2022/08/18 09:42:01;;;;;;;29.52;6.30;;;14.50;99.90;;;;;;4892729;29;21086;-77
2022/08/18 09:44:45;;;;;;;31.50;6.95;;;14.40;99.90;;;;;;4892190;29;20390;-75
2022/08/18 09:47:24;;;;;;;27.42;6.75;;;14.30;99.90;;;;;;4892998;29;20462;-75
2022/08/18 09:49:55;;;;;;;30.85;7.88;;;14.30;99.90;;;;;;4892263;29;20405;-74
2022/08/18 09:52:25;;;;;;;27.38;7.05;;;14.20;99.90;;;;;;4892996;29;20492;-79
2022/08/18 09:55:27;;;;;;;23.45;6.78;;;14.10;99.90;;;;;;4947063;28;20385;-76
2022/08/18 09:58:40;;;;;;;31.63;7.30;;;14.10;99.90;;;;;;4990223;28;21316;-75
2022/08/18 10:01:19;;;;;;;21.53;6.47;;;14.00;99.90;;;;;;4990810;28;20923;-76
2022/08/18 10:04:26;;;;;;;24.08;6.20;;;14.00;99.90;;;;;;4994440;28;20446;-77
2022/08/18 10:06:53;;;;;;;18.00;5.97;;;13.90;99.90;;;;;;4994465;28;20793;-78
2022/08/18 10:09:37;;;;;;;18.33;6.40;;;13.90;99.90;;;;;;4994289;28;20772;-78
2022/08/18 10:12:11;;;;;;;21.40;6.35;;;13.80;99.90;;;;;;4992185;28;20415;-78
2022/08/18 10:15:20;;;;;;;24.30;6.40;;;13.80;99.90;;;;;;4984007;28;20845;-78
2022/08/18 10:18:11;;;;;;;22.15;6.30;;;13.70;99.90;;;;;;4964831;28;20385;-76
2022/08/18 10:21:33;;;;;;;19.35;6.38;;;13.60;99.90;;;;;;4994138;28;20836;-78
2022/08/18 10:24:07;;;;;;;17.53;6.00;;;13.60;99.90;;;;;;4994201;28;20734;-78
2022/08/18 10:26:36;;;;;;;21.80;6.10;;;13.50;99.90;;;;;;4994151;28;20384;-78
2022/08/18 10:29:10;;;;;;;19.23;6.80;;;13.50;99.90;;;;;;4996224;28;20809;-78
2022/08/18 10:32:00;;;;;;;19.73;6.78;;;13.50;99.90;;;;;;4994174;28;20393;-75
2022/08/18 10:34:54;;;;;;;19.27;6.77;;;13.40;99.90;;;;;;4952556;29;20393;-75
2022/08/18 10:37:52;;;;;;;20.23;6.80;;;13.40;99.90;;;;;;4947893;29;20490;-76
2022/08/18 10:40:22;;;;;;;24.08;6.72;;;13.40;99.90;;;;;;4951274;29;20460;-75
2022/08/18 10:43:41;;;;;;;15.33;6.30;;;13.40;99.90;;;;;;4948709;29;20392;-78
2022/08/18 10:46:27;;;;;;;19.20;6.80;;;13.30;99.90;;;;;;4898169;29;20789;-77
2022/08/18 10:49:12;;;;;;;16.05;6.40;;;13.30;99.90;;;;;;4897296;29;20409;-75
2022/08/18 10:51:51;;;;;;;16.40;7.07;;;13.30;99.90;;;;;;4901379;29;20413;-82
2022/08/18 10:54:44;;;;;;;17.50;7.07;;;13.20;99.90;;;;;;4895919;29;20414;-76
2022/08/18 10:57:54;;;;;;;15.10;7.45;;;13.20;99.90;;;;;;4894263;29;20410;-77
2022/08/18 11:00:27;;;;;;;18.73;8.60;;;13.20;99.90;;;;;;4857812;29;20909;-75
2022/08/18 11:03:13;;;;;;;19.73;9.93;;;13.30;99.90;;;;;;4857795;29;20468;-77
2022/08/18 11:05:41;;;;;;;19.88;9.23;;;13.20;99.90;;;;;;4857794;29;20416;-76
2022/08/18 11:08:16;;;;;;;19.93;10.13;;;13.20;99.90;;;;;;4857816;29;21010;-74
2022/08/18 11:10:50;;;;;;;22.13;10.90;;;13.20;99.90;;;;;;4861056;29;20934;-75
2022/08/18 11:13:30;;;;;;;22.65;9.82;;;13.20;99.90;;;;;;4891679;29;20834;-74
2022/08/18 11:16:02;;;;;;;18.95;10.02;;;13.20;99.90;;;;;;4899430;29;20408;-75
2022/08/18 11:18:39;;;;;;;20.23;9.90;;;13.10;99.90;;;;;;4879784;29;20758;-75
2022/08/18 11:21:32;;;;;;;17.55;9.50;;;13.10;99.90;;;;;;4896238;29;20409;-78
2022/08/18 11:24:19;;;;;;;13.75;7.75;;;13.10;99.90;;;;;;4928643;29;20755;-76
2022/08/18 11:26:51;;;;;;;11.68;6.60;;;13.10;99.90;;;;;;4931777;29;20412;-73
2022/08/18 11:29:20;;;;;;;14.20;7.72;;;13.20;99.90;;;;;;4932159;29;20429;-74
2022/08/18 11:31:52;;;;;;;18.63;10.52;;;13.20;99.90;;;;;;4932506;29;20398;-74
2022/08/18 11:34:35;;;;;;;17.10;10.05;;;13.20;99.90;;;;;;4932582;29;20426;-74
2022/08/18 11:37:30;;;;;;;23.23;11.20;;;13.30;99.90;;;;;;4975951;28;20732;-76
2022/08/18 11:40:00;;;;;;;22.58;11.73;;;13.20;99.90;;;;;;4987042;28;20385;-76
2022/08/18 11:42:35;;;;;;;19.30;11.25;;;13.20;99.90;;;;;;4998312;28;20381;-75
2022/08/18 11:45:20;;;;;;;25.00;12.13;;;13.20;99.90;;;;;;4992931;28;20455;-76
2022/08/18 11:48:21;;;;;;;20.77;11.70;;;13.20;99.90;;;;;;4975415;28;20771;-75
2022/08/18 11:50:58;;;;;;;20.25;11.10;;;13.10;99.90;;;;;;4992919;28;20416;-74
2022/08/18 11:53:48;;;;;;;17.65;11.05;;;13.10;99.90;;;;;;4979897;28;20373;-76
2022/08/18 11:56:26;;;;;;;15.15;9.98;;;13.10;99.90;;;;;;4988990;28;20476;-75
2022/08/18 11:59:00;;;;;;;15.50;11.25;;;13.10;99.90;;;;;;4992644;28;20451;-75
2022/08/18 12:01:32;;;;;;;15.63;10.23;;;13.00;99.90;;;;;;4992771;28;20393;-75
2022/08/18 12:04:13;;;;;;;16.08;10.23;;;13.00;99.90;;;;;;4993776;28;20459;-72
2022/08/18 12:06:58;;;;;;;16.52;10.45;;;13.00;99.90;;;;;;5003057;28;20388;-74
2022/08/18 12:09:31;;;;;;;15.87;10.20;;;12.90;99.90;;;;;;5008574;28;20403;-74
2022/08/18 12:12:21;;;;;;;14.07;9.60;;;13.00;99.90;;;;;;5001836;28;20522;-74
2022/08/18 12:14:59;;;;;;;14.02;9.48;;;12.90;99.90;;;;;;4906216;29;20414;-76
2022/08/18 12:17:28;;;;;;;15.30;9.68;;;12.90;99.90;;;;;;4913305;29;20403;-74
2022/08/18 12:19:57;;;;;;;16.60;10.00;;;12.90;99.90;;;;;;4912306;29;20491;-75
2022/08/18 12:22:27;;;;;;;16.85;10.07;;;12.80;99.90;;;;;;4914297;29;20459;-74
2022/08/18 12:24:54;;;;;;;14.48;10.20;;;12.80;99.90;;;;;;4912983;29;20404;-73
2022/08/18 12:27:24;;;;;;;16.13;9.27;;;12.80;99.90;;;;;;4901840;29;20404;-73
2022/08/18 12:29:54;;;;;;;13.82;8.30;;;12.80;99.90;;;;;;4913002;29;20498;-74
2022/08/18 12:32:23;;;;;;;15.38;9.30;;;12.80;99.90;;;;;;4912762;29;20439;-77
2022/08/18 12:34:51;;;;;;;13.70;9.30;;;12.70;99.90;;;;;;4910140;29;20407;-75
2022/08/18 12:37:24;;;;;;;16.23;11.63;;;12.80;99.90;;;;;;4906638;29;20472;-73
2022/08/18 12:39:53;;;;;;;14.77;10.40;;;12.80;99.90;;;;;;4912548;29;20391;-77
2022/08/18 12:42:20;;;;;;;15.23;10.40;;;12.80;99.90;;;;;;4912741;29;20582;-73
2022/08/18 12:44:48;;;;;;;12.63;9.40;;;12.80;99.90;;;;;;4912630;29;20399;-77
2022/08/18 12:47:19;;;;;;;11.52;8.90;;;12.80;99.90;;;;;;4912733;29;20399;-75
2022/08/18 12:49:46;;;;;;;12.80;8.80;;;12.80;99.90;;;;;;4912304;29;20530;-74
2022/08/18 12:52:14;;;;;;;10.68;8.43;;;12.80;99.90;;;;;;4962667;28;20408;-74
2022/08/18 12:54:45;;;;;;;12.02;8.52;;;12.70;99.90;;;;;;4991397;28;20407;-74
2022/08/18 12:57:25;;;;;;;16.03;10.27;;;12.70;99.90;;;;;;4991417;28;20389;-73
2022/08/18 12:59:53;;;;;;;13.00;9.27;;;12.70;99.90;;;;;;4990958;28;20427;-76
2022/08/18 13:02:21;;;;;;;17.08;10.50;;;12.60;99.90;;;;;;4991485;28;20868;-75
2022/08/18 13:04:48;;;;;;;16.83;11.10;;;12.60;99.90;;;;;;4990284;28;20409;-76
2022/08/18 13:07:15;;;;;;;23.42;11.77;;;12.60;99.90;;;;;;4991115;28;20399;-72
2022/08/18 13:09:43;;;;;;;14.88;9.52;;;12.60;99.90;;;;;;4990969;28;20401;-75
2022/08/18 13:12:12;;;;;;;14.23;8.88;;;12.60;99.90;;;;;;4988064;28;20387;-76
2022/08/18 13:14:40;;;;;;;14.43;8.82;;;12.60;99.90;;;;;;4980769;28;20392;-73
2022/08/18 13:17:08;;;;;;;15.38;9.40;;;12.60;99.90;;;;;;4990761;28;20393;-72
2022/08/18 13:19:36;;;;;;;13.60;9.25;;;12.50;99.90;;;;;;4990853;28;20374;-77
2022/08/18 13:22:03;;;;;;;14.25;8.90;;;12.50;99.90;;;;;;4990401;28;20392;-77
2022/08/18 13:24:31;;;;;;;12.73;7.93;;;12.50;99.90;;;;;;4991047;28;20381;-77
2022/08/18 13:26:58;;;;;;;11.38;7.53;;;12.50;99.90;;;;;;4991041;28;20907;-77
2022/08/18 13:29:25;;;;;;;12.43;7.75;;;12.50;99.90;;;;;;4990616;28;20415;-76
2022/08/18 13:31:57;;;;;;;12.00;8.20;;;12.50;99.90;;;;;;4990832;28;20480;-73
2022/08/18 13:34:27;;;;;;;16.33;8.52;;;12.50;99.90;;;;;;4990823;28;20369;-73